createdAt,value
2018-03-18T00:00:18.054Z,1004.46
2018-03-18T00:01:18.067Z,1004.49
2018-03-18T00:02:18.068Z,1004.43
2018-03-18T00:03:18.073Z,1004.40
2018-03-18T00:04:18.087Z,1004.39
2018-03-18T00:05:18.091Z,1004.35
2018-03-18T00:06:18.098Z,1004.46
2018-03-18T00:07:18.105Z,1004.48
2018-03-18T00:08:18.113Z,1004.45
2018-03-18T00:09:18.122Z,1004.48
2018-03-18T00:10:18.124Z,1004.48
2018-03-18T00:11:18.132Z,1004.45
2018-03-18T00:12:18.139Z,1004.43
2018-03-18T00:13:18.146Z,1004.42
2018-03-18T00:14:18.153Z,1004.62
2018-03-18T00:15:18.162Z,1004.51
2018-03-18T00:16:18.174Z,1004.48
2018-03-18T00:17:18.176Z,1004.32
2018-03-18T00:18:18.184Z,1004.50
2018-03-18T00:19:18.494Z,1004.52
2018-03-18T00:20:18.198Z,1004.43
2018-03-18T00:21:18.211Z,1004.28
2018-03-18T00:22:18.214Z,1004.47
2018-03-18T00:23:18.219Z,1004.48
2018-03-18T00:24:18.226Z,1004.53
2018-03-18T00:25:18.236Z,1004.50
2018-03-18T00:26:18.243Z,1004.53
2018-03-18T00:27:18.246Z,1004.55
2018-03-18T00:28:18.260Z,1004.58
2018-03-18T00:29:18.263Z,1004.55
2018-03-18T00:30:18.271Z,1004.52
2018-03-18T00:31:18.276Z,1004.51
2018-03-18T00:32:18.290Z,1004.59
2018-03-18T00:33:18.292Z,1004.60
2018-03-18T00:34:18.300Z,1004.50
2018-03-18T00:35:18.310Z,1004.44
2018-03-18T00:36:18.312Z,1004.65
2018-03-18T00:37:18.320Z,1004.57
2018-03-18T00:38:18.329Z,1004.56
2018-03-18T00:39:18.334Z,1004.62
2018-03-18T00:40:18.356Z,1004.60
2018-03-18T00:41:18.351Z,1004.57
2018-03-18T00:42:18.360Z,1004.52
2018-03-18T00:43:18.372Z,1004.59
2018-03-18T00:44:18.376Z,1004.57
2018-03-18T00:45:18.380Z,1004.59
2018-03-18T00:46:18.393Z,1004.62
2018-03-18T00:47:18.392Z,1004.62
2018-03-18T00:48:18.398Z,1004.53
2018-03-18T00:49:18.408Z,1004.65
2018-03-18T00:50:18.413Z,1004.59
2018-03-18T00:51:18.418Z,1004.65
2018-03-18T00:52:18.426Z,1004.64
2018-03-18T00:53:18.438Z,1004.56
2018-03-18T00:54:18.442Z,1004.63
2018-03-18T00:55:18.450Z,1004.59
2018-03-18T00:56:18.458Z,1004.63
2018-03-18T00:57:18.463Z,1004.65
2018-03-18T00:58:18.474Z,1004.56
2018-03-18T00:59:18.476Z,1004.56
2018-03-18T01:00:18.485Z,1004.62
2018-03-18T01:01:18.494Z,1004.61
2018-03-18T01:02:18.499Z,1004.60
2018-03-18T01:03:18.505Z,1004.57
2018-03-18T01:04:18.513Z,1004.60
2018-03-18T01:05:18.523Z,1004.60
2018-03-18T01:06:18.531Z,1004.60
2018-03-18T01:07:18.538Z,1004.57
2018-03-18T01:08:18.541Z,1004.60
2018-03-18T01:09:18.549Z,1004.66
2018-03-18T01:10:18.556Z,1004.60
2018-03-18T01:11:18.562Z,1004.58
2018-03-18T01:12:18.569Z,1004.61
2018-03-18T01:13:18.584Z,1004.64
2018-03-18T01:14:18.590Z,1004.65
2018-03-18T01:15:18.593Z,1004.54
2018-03-18T01:16:18.608Z,1004.61
2018-03-18T01:17:18.606Z,1004.63
2018-03-18T01:18:18.613Z,1004.60
2018-03-18T01:19:18.621Z,1004.55
2018-03-18T01:20:18.629Z,1004.52
2018-03-18T01:21:18.644Z,1004.57
2018-03-18T01:22:18.640Z,1004.62
2018-03-18T01:23:18.646Z,1004.65
2018-03-18T01:24:18.654Z,1004.61
2018-03-18T01:25:18.661Z,1004.66
2018-03-18T01:26:18.668Z,1004.66
2018-03-18T01:27:18.675Z,1004.72
2018-03-18T01:28:18.682Z,1004.63
2018-03-18T01:29:18.691Z,1004.62
2018-03-18T01:30:18.697Z,1004.65
2018-03-18T01:31:18.704Z,1004.64
2018-03-18T01:32:18.712Z,1004.64
2018-03-18T01:33:18.718Z,1004.69
2018-03-18T01:34:18.730Z,1004.63
2018-03-18T01:35:18.730Z,1004.62
2018-03-18T01:36:18.739Z,1004.60
2018-03-18T01:37:18.748Z,1004.56
2018-03-18T01:38:18.757Z,1004.58
2018-03-18T01:39:18.758Z,1004.49
2018-03-18T01:40:18.766Z,1004.43
2018-03-18T01:41:18.772Z,1004.46
2018-03-18T01:42:18.782Z,1004.57
2018-03-18T01:43:18.794Z,1004.49
2018-03-18T01:44:18.795Z,1004.47
2018-03-18T01:45:18.804Z,1004.57
2018-03-18T01:46:18.809Z,1004.51
2018-03-18T01:47:18.817Z,1004.51
2018-03-18T01:48:18.823Z,1004.47
2018-03-18T01:49:18.832Z,1004.52
2018-03-18T01:50:18.837Z,1004.51
2018-03-18T01:51:18.845Z,1004.45
2018-03-18T01:52:18.852Z,1004.53
2018-03-18T01:53:18.860Z,1004.55
2018-03-18T01:54:18.869Z,1004.59
2018-03-18T01:55:18.956Z,1004.57
2018-03-18T01:56:18.879Z,1004.50
2018-03-18T01:57:18.959Z,1004.38
2018-03-18T01:58:18.915Z,1004.56
2018-03-18T01:59:18.923Z,1004.46
2018-03-18T02:00:18.944Z,1004.54
2018-03-18T02:01:18.952Z,1004.45
2018-03-18T02:02:19.039Z,1004.40
2018-03-18T02:03:18.931Z,1004.44
2018-03-18T02:04:18.936Z,1004.51
2018-03-18T02:05:18.946Z,1004.45
2018-03-18T02:06:19.039Z,1004.51
2018-03-18T02:07:18.965Z,1004.46
2018-03-18T02:08:18.964Z,1004.44
2018-03-18T02:09:19.017Z,1004.42
2018-03-18T02:10:19.021Z,1004.48
2018-03-18T02:11:19.020Z,1004.44
2018-03-18T02:12:19.038Z,1004.45
2018-03-18T02:13:19.022Z,1004.40
2018-03-18T02:14:19.005Z,1004.46
2018-03-18T02:15:19.016Z,1004.46
2018-03-18T02:16:19.018Z,1004.42
2018-03-18T02:17:19.034Z,1004.36
2018-03-18T02:18:19.034Z,1004.40
2018-03-18T02:19:19.061Z,1004.28
2018-03-18T02:20:19.051Z,1004.47
2018-03-18T02:21:19.059Z,1004.42
2018-03-18T02:22:19.069Z,1004.47
2018-03-18T02:23:19.079Z,1004.40
2018-03-18T02:24:19.075Z,1004.35
2018-03-18T02:25:19.109Z,1004.34
2018-03-18T02:26:19.090Z,1004.42
2018-03-18T02:27:19.096Z,1004.31
2018-03-18T02:28:19.102Z,1004.40
2018-03-18T02:29:19.109Z,1004.43
2018-03-18T02:30:19.142Z,1004.35
2018-03-18T02:31:19.125Z,1004.39
2018-03-18T02:32:19.130Z,1004.39
2018-03-18T02:33:19.138Z,1004.40
2018-03-18T02:34:19.146Z,1004.48
2018-03-18T02:35:19.168Z,1004.40
2018-03-18T02:36:19.161Z,1004.43
2018-03-18T02:37:19.169Z,1004.36
2018-03-18T02:38:19.173Z,1004.38
2018-03-18T02:39:19.182Z,1004.32
2018-03-18T02:40:19.187Z,1004.37
2018-03-18T02:41:19.195Z,1004.38
2018-03-18T02:42:19.205Z,1004.33
2018-03-18T02:43:19.209Z,1004.29
2018-03-18T02:44:19.212Z,1004.26
2018-03-18T02:45:19.228Z,1004.33
2018-03-18T02:46:19.230Z,1004.33
2018-03-18T02:47:19.239Z,1004.38
2018-03-18T02:48:19.246Z,1004.37
2018-03-18T02:49:19.264Z,1004.44
2018-03-18T02:50:19.255Z,1004.20
2018-03-18T02:51:19.263Z,1004.28
2018-03-18T02:52:19.275Z,1004.32
2018-03-18T02:53:19.276Z,1004.32
2018-03-18T02:54:19.283Z,1004.27
2018-03-18T02:55:19.290Z,1004.28
2018-03-18T02:56:19.297Z,1004.36
2018-03-18T02:57:19.310Z,1004.35
2018-03-18T02:58:19.309Z,1004.28
2018-03-18T02:59:19.316Z,1004.17
2018-03-18T03:00:19.322Z,1004.25
2018-03-18T03:01:19.336Z,1004.28
2018-03-18T03:02:19.355Z,1004.30
2018-03-18T03:03:19.360Z,1004.26
2018-03-18T03:04:19.353Z,1004.29
2018-03-18T03:05:19.358Z,1004.30
2018-03-18T03:06:19.365Z,1004.25
2018-03-18T03:07:19.374Z,1004.24
2018-03-18T03:08:19.379Z,1004.23
2018-03-18T03:09:19.386Z,1004.28
2018-03-18T03:10:19.393Z,1004.29
2018-03-18T03:11:19.399Z,1004.28
2018-03-18T03:12:19.404Z,1004.47
2018-03-18T03:13:19.413Z,1004.36
2018-03-18T03:14:19.420Z,1004.34
2018-03-18T03:15:19.425Z,1004.27
2018-03-18T03:16:19.433Z,1004.25
2018-03-18T03:17:19.442Z,1004.28
2018-03-18T03:18:19.445Z,1004.27
2018-03-18T03:19:19.452Z,1004.31
2018-03-18T03:20:19.458Z,1004.33
2018-03-18T03:21:19.464Z,1004.30
2018-03-18T03:22:19.478Z,1004.28
2018-03-18T03:23:19.481Z,1004.27
2018-03-18T03:24:19.486Z,1004.46
2018-03-18T03:25:19.493Z,1004.39
2018-03-18T03:26:19.501Z,1004.36
2018-03-18T03:27:19.505Z,1004.37
2018-03-18T03:28:19.513Z,1004.35
2018-03-18T03:29:19.521Z,1004.38
2018-03-18T03:30:19.529Z,1004.22
2018-03-18T03:31:19.534Z,1004.34
2018-03-18T03:32:19.545Z,1004.32
2018-03-18T03:33:19.558Z,1004.53
2018-03-18T03:34:19.555Z,1004.29
2018-03-18T03:35:19.561Z,1004.35
2018-03-18T03:36:19.571Z,1004.32
2018-03-18T03:37:19.574Z,1004.43
2018-03-18T03:38:19.583Z,1004.31
2018-03-18T03:39:19.586Z,1004.43
2018-03-18T03:40:19.601Z,1004.34
2018-03-18T03:41:19.603Z,1004.43
2018-03-18T03:42:19.608Z,1004.34
2018-03-18T03:43:19.614Z,1004.44
2018-03-18T03:44:19.624Z,1004.51
2018-03-18T03:45:19.629Z,1004.44
2018-03-18T03:46:19.659Z,1004.47
2018-03-18T03:47:19.742Z,1004.48
2018-03-18T03:48:19.650Z,1004.48
2018-03-18T03:49:19.656Z,1004.42
2018-03-18T03:50:19.663Z,1004.44
2018-03-18T03:51:19.668Z,1004.51
2018-03-18T03:52:19.780Z,1004.49
2018-03-18T03:53:19.682Z,1004.50
2018-03-18T03:54:19.689Z,1004.47
2018-03-18T03:55:19.699Z,1004.51
2018-03-18T03:56:19.702Z,1004.49
2018-03-18T03:57:19.709Z,1004.59
2018-03-18T03:58:19.715Z,1004.50
2018-03-18T03:59:19.722Z,1004.56
2018-03-18T04:00:19.731Z,1004.59
2018-03-18T04:01:19.736Z,1004.52
2018-03-18T04:02:19.746Z,1004.64
2018-03-18T04:03:19.748Z,1004.60
2018-03-18T04:04:19.759Z,1004.52
2018-03-18T04:05:19.764Z,1004.56
2018-03-18T04:06:19.770Z,1004.60
2018-03-18T04:07:19.775Z,1004.69
2018-03-18T04:08:19.782Z,1004.59
2018-03-18T04:09:19.789Z,1004.70
2018-03-18T04:10:19.798Z,1004.49
2018-03-18T04:11:19.802Z,1004.65
2018-03-18T04:12:19.809Z,1004.64
2018-03-18T04:13:19.815Z,1004.57
2018-03-18T04:14:19.821Z,1004.59
2018-03-18T04:15:19.827Z,1004.60
2018-03-18T04:16:19.836Z,1004.62
2018-03-18T04:17:19.840Z,1004.67
2018-03-18T04:18:19.848Z,1004.65
2018-03-18T04:19:19.854Z,1004.67
2018-03-18T04:20:19.865Z,1004.57
2018-03-18T04:21:19.870Z,1004.61
2018-03-18T04:22:19.881Z,1004.66
2018-03-18T04:23:19.886Z,1004.55
2018-03-18T04:24:19.893Z,1004.62
2018-03-18T04:25:19.897Z,1004.54
2018-03-18T04:26:19.906Z,1004.71
2018-03-18T04:27:19.908Z,1004.71
2018-03-18T04:28:19.916Z,1004.68
2018-03-18T04:29:19.920Z,1004.67
2018-03-18T04:30:19.928Z,1004.73
2018-03-18T04:31:19.934Z,1004.63
2018-03-18T04:32:19.954Z,1004.63
2018-03-18T04:33:19.947Z,1004.63
2018-03-18T04:34:19.955Z,1004.68
2018-03-18T04:35:19.961Z,1004.72
2018-03-18T04:36:19.969Z,1004.64
2018-03-18T04:37:19.974Z,1004.76
2018-03-18T04:38:19.985Z,1004.77
2018-03-18T04:39:19.987Z,1004.66
2018-03-18T04:40:20.009Z,1004.78
2018-03-18T04:41:20.001Z,1004.74
2018-03-18T04:42:20.019Z,1004.75
2018-03-18T04:43:20.018Z,1004.74
2018-03-18T04:44:20.020Z,1004.74
2018-03-18T04:45:20.027Z,1004.79
2018-03-18T04:46:20.034Z,1004.74
2018-03-18T04:47:20.052Z,1004.66
2018-03-18T04:48:20.047Z,1004.71
2018-03-18T04:49:20.058Z,1004.71
2018-03-18T04:50:20.061Z,1004.72
2018-03-18T04:51:20.068Z,1004.68
2018-03-18T04:52:20.105Z,1004.73
2018-03-18T04:53:20.084Z,1004.65
2018-03-18T04:54:20.090Z,1004.71
2018-03-18T04:55:20.091Z,1004.73
2018-03-18T04:56:20.102Z,1004.80
2018-03-18T04:57:20.106Z,1004.76
2018-03-18T04:58:20.111Z,1004.69
2018-03-18T04:59:20.119Z,1004.80
2018-03-18T05:00:20.126Z,1004.82
2018-03-18T05:01:20.133Z,1004.80
2018-03-18T05:02:20.140Z,1004.70
2018-03-18T05:03:20.145Z,1004.68
2018-03-18T05:04:20.153Z,1004.62
2018-03-18T05:05:20.162Z,1004.75
2018-03-18T05:06:20.250Z,1004.76
2018-03-18T05:07:20.171Z,1004.71
2018-03-18T05:08:20.176Z,1004.78
2018-03-18T05:09:20.183Z,1004.70
2018-03-18T05:10:20.201Z,1004.77
2018-03-18T05:11:20.197Z,1004.77
2018-03-18T05:12:20.201Z,1004.70
2018-03-18T05:13:20.209Z,1004.75
2018-03-18T05:14:20.223Z,1004.78
2018-03-18T05:15:20.223Z,1004.88
2018-03-18T05:16:20.229Z,1004.75
2018-03-18T05:17:20.242Z,1004.77
2018-03-18T05:18:20.251Z,1004.74
2018-03-18T05:19:20.246Z,1004.78
2018-03-18T05:20:20.255Z,1004.83
2018-03-18T05:21:20.271Z,1004.79
2018-03-18T05:22:20.271Z,1004.77
2018-03-18T05:23:20.274Z,1004.77
2018-03-18T05:24:20.278Z,1004.75
2018-03-18T05:25:20.286Z,1004.83
2018-03-18T05:26:20.293Z,1004.83
2018-03-18T05:27:20.295Z,1004.80
2018-03-18T05:28:20.611Z,1004.91
2018-03-18T05:29:20.315Z,1004.72
2018-03-18T05:30:20.317Z,1004.83
2018-03-18T05:31:20.322Z,1004.87
2018-03-18T05:32:20.331Z,1004.99
2018-03-18T05:33:20.335Z,1004.89
2018-03-18T05:34:20.344Z,1004.89
2018-03-18T05:35:20.362Z,1004.85
2018-03-18T05:36:20.355Z,1004.88
2018-03-18T05:37:20.363Z,1004.91
2018-03-18T05:38:20.385Z,1004.87
2018-03-18T05:39:20.377Z,1004.99
2018-03-18T05:40:20.383Z,1004.93
2018-03-18T05:41:20.387Z,1004.93
2018-03-18T05:42:20.393Z,1004.99
2018-03-18T05:43:20.422Z,1004.94
2018-03-18T05:44:20.407Z,1005.04
2018-03-18T05:45:20.417Z,1004.97
2018-03-18T05:46:20.421Z,1005.00
2018-03-18T05:47:20.425Z,1005.00
2018-03-18T05:48:20.440Z,1005.06
2018-03-18T05:49:20.443Z,1005.08
2018-03-18T05:50:20.444Z,1005.03
2018-03-18T05:51:20.450Z,1004.96
2018-03-18T05:52:20.457Z,1004.96
2018-03-18T05:53:20.463Z,1004.98
2018-03-18T05:54:20.486Z,1004.97
2018-03-18T05:55:20.475Z,1005.11
2018-03-18T05:56:20.531Z,1005.07
2018-03-18T05:57:20.743Z,1005.05
2018-03-18T05:58:20.496Z,1005.07
2018-03-18T05:59:20.504Z,1005.08
2018-03-18T06:00:20.508Z,1005.09
2018-03-18T06:01:20.517Z,1005.02
2018-03-18T06:02:20.521Z,1005.12
2018-03-18T06:03:20.530Z,1005.10
2018-03-18T06:04:20.543Z,1005.15
2018-03-18T06:05:20.543Z,1005.11
2018-03-18T06:06:20.550Z,1005.14
2018-03-18T06:07:20.553Z,1005.13
2018-03-18T06:08:20.562Z,1005.18
2018-03-18T06:09:20.568Z,1005.13
2018-03-18T06:10:20.575Z,1005.16
2018-03-18T06:11:20.578Z,1005.10
2018-03-18T06:12:20.590Z,1005.10
2018-03-18T06:13:20.593Z,1005.19
2018-03-18T06:14:20.600Z,1005.17
2018-03-18T06:15:20.606Z,1005.09
2018-03-18T06:16:20.614Z,1005.15
2018-03-18T06:17:20.619Z,1005.16
2018-03-18T06:18:20.631Z,1005.15
2018-03-18T06:19:20.634Z,1005.17
2018-03-18T06:20:20.641Z,1005.18
2018-03-18T06:21:20.644Z,1005.12
2018-03-18T06:22:20.654Z,1005.20
2018-03-18T06:23:20.659Z,1005.21
2018-03-18T06:24:20.669Z,1005.16
2018-03-18T06:25:20.678Z,1005.26
2018-03-18T06:26:20.682Z,1005.21
2018-03-18T06:27:20.687Z,1005.28
2018-03-18T06:28:20.694Z,1005.25
2018-03-18T06:29:20.699Z,1005.30
2018-03-18T06:30:20.706Z,1005.29
2018-03-18T06:31:20.715Z,1005.30
2018-03-18T06:32:20.719Z,1005.31
2018-03-18T06:33:20.733Z,1005.24
2018-03-18T06:34:20.744Z,1005.34
2018-03-18T06:35:20.751Z,1005.16
2018-03-18T06:36:20.747Z,1005.34
2018-03-18T06:37:20.755Z,1005.38
2018-03-18T06:38:20.760Z,1005.26
2018-03-18T06:39:20.770Z,1005.28
2018-03-18T06:40:20.783Z,1005.27
2018-03-18T06:41:20.783Z,1005.38
2018-03-18T06:42:20.791Z,1005.42
2018-03-18T06:43:20.792Z,1005.31
2018-03-18T06:44:20.800Z,1005.32
2018-03-18T06:45:20.823Z,1005.40
2018-03-18T06:46:20.814Z,1005.42
2018-03-18T06:47:20.821Z,1005.40
2018-03-18T06:48:20.843Z,1005.42
2018-03-18T06:49:20.838Z,1005.37
2018-03-18T06:50:20.841Z,1005.41
2018-03-18T06:51:20.864Z,1005.37
2018-03-18T06:52:20.852Z,1005.35
2018-03-18T06:53:20.860Z,1005.44
2018-03-18T06:54:20.868Z,1005.34
2018-03-18T06:55:20.887Z,1005.45
2018-03-18T06:56:20.880Z,1005.47
2018-03-18T06:57:20.897Z,1005.46
2018-03-18T06:58:20.901Z,1005.47
2018-03-18T06:59:20.903Z,1005.60
2018-03-18T07:00:20.912Z,1005.55
2018-03-18T07:01:20.918Z,1005.52
2018-03-18T07:02:20.928Z,1005.44
2018-03-18T07:03:20.945Z,1005.55
2018-03-18T07:04:20.942Z,1005.50
2018-03-18T07:05:20.942Z,1005.50
2018-03-18T07:06:20.952Z,1005.53
2018-03-18T07:07:20.963Z,1005.44
2018-03-18T07:08:20.964Z,1005.44
2018-03-18T07:09:20.969Z,1005.45
2018-03-18T07:10:20.977Z,1005.63
2018-03-18T07:11:20.985Z,1005.60
2018-03-18T07:12:20.989Z,1005.64
2018-03-18T07:13:20.996Z,1005.60
2018-03-18T07:14:21.003Z,1005.64
2018-03-18T07:15:21.020Z,1005.63
2018-03-18T07:16:21.017Z,1005.69
2018-03-18T07:17:21.023Z,1005.63
2018-03-18T07:18:21.034Z,1005.65
2018-03-18T07:19:21.039Z,1005.60
2018-03-18T07:20:21.045Z,1005.62
2018-03-18T07:21:21.059Z,1005.65
2018-03-18T07:22:21.066Z,1005.59
2018-03-18T07:23:21.080Z,1005.70
2018-03-18T07:24:21.074Z,1005.64
2018-03-18T07:25:21.087Z,1005.63
2018-03-18T07:26:21.087Z,1005.71
2018-03-18T07:27:21.092Z,1005.81
2018-03-18T07:28:21.100Z,1005.63
2018-03-18T07:29:21.108Z,1005.68
2018-03-18T07:30:21.118Z,1005.77
2018-03-18T07:31:21.124Z,1005.84
2018-03-18T07:32:21.131Z,1005.83
2018-03-18T07:33:21.136Z,1005.78
2018-03-18T07:34:21.147Z,1005.76
2018-03-18T07:35:21.157Z,1005.80
2018-03-18T07:36:21.156Z,1005.81
2018-03-18T07:37:21.162Z,1005.85
2018-03-18T07:38:21.169Z,1005.84
2018-03-18T07:39:21.197Z,1005.85
2018-03-18T07:40:21.187Z,1005.87
2018-03-18T07:41:21.197Z,1005.95
2018-03-18T07:42:21.204Z,1005.84
2018-03-18T07:43:21.208Z,1005.83
2018-03-18T07:44:21.213Z,1005.92
2018-03-18T07:45:21.237Z,1005.77
2018-03-18T07:46:21.226Z,1005.85
2018-03-18T07:47:21.234Z,1005.94
2018-03-18T07:48:21.245Z,1005.90
2018-03-18T07:49:21.255Z,1005.92
2018-03-18T07:50:21.256Z,1006.01
2018-03-18T07:51:21.261Z,1005.82
2018-03-18T07:52:21.270Z,1005.90
2018-03-18T07:53:21.288Z,1005.97
2018-03-18T07:54:21.276Z,1006.10
2018-03-18T07:55:21.284Z,1005.97
2018-03-18T07:56:21.321Z,1005.86
2018-03-18T07:57:21.301Z,1006.01
2018-03-18T07:58:21.305Z,1005.94
2018-03-18T07:59:21.315Z,1006.08
2018-03-18T08:00:21.318Z,1006.11
2018-03-18T08:01:21.334Z,1005.89
2018-03-18T08:02:21.334Z,1006.03
2018-03-18T08:03:21.339Z,1006.06
2018-03-18T08:04:21.348Z,1006.05
2018-03-18T08:05:21.357Z,1006.09
2018-03-18T08:06:21.361Z,1006.16
2018-03-18T08:07:21.371Z,1006.09
2018-03-18T08:08:21.378Z,1006.03
2018-03-18T08:09:21.384Z,1006.11
2018-03-18T08:10:21.392Z,1006.08
2018-03-18T08:11:21.399Z,1006.08
2018-03-18T08:12:21.405Z,1006.03
2018-03-18T08:13:21.411Z,1006.14
2018-03-18T08:14:21.419Z,1006.15
2018-03-18T08:15:21.426Z,1006.07
2018-03-18T08:16:21.435Z,1006.07
2018-03-18T08:17:21.441Z,1006.10
2018-03-18T08:18:21.450Z,1006.06
2018-03-18T08:19:21.456Z,1006.16
2018-03-18T08:20:21.463Z,1006.21
2018-03-18T08:21:21.471Z,1006.23
2018-03-18T08:22:21.481Z,1006.24
2018-03-18T08:23:21.485Z,1006.13
2018-03-18T08:24:21.498Z,1006.18
2018-03-18T08:25:21.500Z,1006.24
2018-03-18T08:26:21.506Z,1006.12
2018-03-18T08:27:21.614Z,1006.27
2018-03-18T08:28:21.520Z,1006.35
2018-03-18T08:29:21.530Z,1006.23
2018-03-18T08:30:21.537Z,1006.25
2018-03-18T08:31:21.544Z,1006.14
2018-03-18T08:32:21.550Z,1006.23
2018-03-18T08:33:21.559Z,1006.29
2018-03-18T08:34:21.568Z,1006.32
2018-03-18T08:35:21.575Z,1006.25
2018-03-18T08:36:21.586Z,1006.14
2018-03-18T08:37:21.589Z,1006.21
2018-03-18T08:38:21.600Z,1006.15
2018-03-18T08:39:21.604Z,1006.26
2018-03-18T08:40:21.613Z,1006.22
2018-03-18T08:41:21.625Z,1006.21
2018-03-18T08:42:21.626Z,1006.19
2018-03-18T08:43:21.634Z,1006.28
2018-03-18T08:44:21.642Z,1006.28
2018-03-18T08:45:21.650Z,1006.29
2018-03-18T08:46:21.658Z,1006.28
2018-03-18T08:47:21.664Z,1006.19
2018-03-18T08:48:21.671Z,1006.21
2018-03-18T08:49:21.679Z,1006.15
2018-03-18T08:50:21.695Z,1006.29
2018-03-18T08:51:21.694Z,1006.24
2018-03-18T08:52:21.755Z,1006.32
2018-03-18T08:53:21.711Z,1006.30
2018-03-18T08:54:21.720Z,1006.28
2018-03-18T08:55:21.726Z,1006.12
2018-03-18T08:56:21.734Z,1006.35
2018-03-18T08:57:21.743Z,1006.25
2018-03-18T08:58:21.750Z,1006.29
2018-03-18T08:59:21.757Z,1006.27
2018-03-18T09:00:21.765Z,1006.25
2018-03-18T09:02:21.784Z,1006.26
2018-03-18T09:03:21.802Z,1006.23
2018-03-18T09:04:21.797Z,1006.30
2018-03-18T09:05:21.810Z,1006.35
2018-03-18T09:06:21.813Z,1006.23
2018-03-18T09:07:21.832Z,1006.33
2018-03-18T09:08:21.833Z,1006.23
2018-03-18T09:09:21.837Z,1006.34
2018-03-18T09:10:21.849Z,1006.31
2018-03-18T09:11:21.851Z,1006.35
2018-03-18T09:12:21.859Z,1006.29
2018-03-18T09:13:21.872Z,1006.26
2018-03-18T09:14:21.889Z,1006.25
2018-03-18T09:15:21.884Z,1006.32
2018-03-18T09:16:21.896Z,1006.36
2018-03-18T09:17:21.902Z,1006.38
2018-03-18T09:18:21.909Z,1006.39
2018-03-18T09:19:21.916Z,1006.27
2018-03-18T09:20:21.924Z,1006.44
2018-03-18T09:21:21.933Z,1006.36
2018-03-18T09:22:21.946Z,1006.38
2018-03-18T09:23:21.961Z,1006.31
2018-03-18T09:24:21.966Z,1006.36
2018-03-18T09:25:21.969Z,1006.36
2018-03-18T09:26:21.974Z,1006.35
2018-03-18T09:27:21.982Z,1006.24
2018-03-18T09:28:21.991Z,1006.30
2018-03-18T09:29:22.001Z,1006.40
2018-03-18T09:30:22.008Z,1006.34
2018-03-18T09:31:22.014Z,1006.31
2018-03-18T09:32:22.026Z,1006.38
2018-03-18T09:33:22.033Z,1006.37
2018-03-18T09:34:22.041Z,1006.42
2018-03-18T09:35:22.051Z,1006.36
2018-03-18T09:36:22.061Z,1006.26
2018-03-18T09:37:22.065Z,1006.38
2018-03-18T09:38:22.073Z,1006.41
2018-03-18T09:39:22.081Z,1006.24
2018-03-18T09:40:22.091Z,1006.39
2018-03-18T09:41:22.101Z,1006.41
2018-03-18T09:42:22.107Z,1006.43
2018-03-18T09:43:22.116Z,1006.43
2018-03-18T09:44:22.127Z,1006.35
2018-03-18T09:45:22.134Z,1006.41
2018-03-18T09:46:22.145Z,1006.42
2018-03-18T09:47:22.150Z,1006.39
2018-03-18T09:48:22.160Z,1006.53
2018-03-18T09:49:22.171Z,1006.41
2018-03-18T09:50:22.175Z,1006.42
2018-03-18T09:51:22.185Z,1006.48
2018-03-18T09:52:22.200Z,1006.48
2018-03-18T09:53:22.204Z,1006.41
2018-03-18T09:54:22.212Z,1006.45
2018-03-18T09:55:22.220Z,1006.52
2018-03-18T09:56:22.253Z,1006.42
2018-03-18T09:57:22.242Z,1006.55
2018-03-18T09:58:22.246Z,1006.53
2018-03-18T09:59:22.253Z,1006.51
2018-03-18T10:00:22.264Z,1006.45
2018-03-18T10:01:22.272Z,1006.52
2018-03-18T10:02:22.286Z,1006.49
2018-03-18T10:03:22.287Z,1006.54
2018-03-18T10:04:22.298Z,1006.64
2018-03-18T10:05:22.308Z,1006.61
2018-03-18T10:06:22.316Z,1006.53
2018-03-18T10:07:22.331Z,1006.56
2018-03-18T10:08:22.357Z,1006.65
2018-03-18T10:09:22.343Z,1006.60
2018-03-18T10:10:22.359Z,1006.62
2018-03-18T10:11:22.359Z,1006.51
2018-03-18T10:12:22.369Z,1006.67
2018-03-18T10:13:22.380Z,1006.59
2018-03-18T10:14:22.387Z,1006.54
2018-03-18T10:15:22.395Z,1006.72
2018-03-18T10:16:22.408Z,1006.69
2018-03-18T10:17:22.416Z,1006.65
2018-03-18T10:18:22.426Z,1006.66
2018-03-18T10:19:22.434Z,1006.60
2018-03-18T10:20:22.485Z,1006.52
2018-03-18T10:21:22.449Z,1006.57
2018-03-18T10:22:22.459Z,1006.63
2018-03-18T10:23:22.468Z,1006.73
2018-03-18T10:24:22.484Z,1006.62
2018-03-18T10:25:22.486Z,1006.62
2018-03-18T10:26:22.502Z,1006.57
2018-03-18T10:27:22.507Z,1006.64
2018-03-18T10:28:22.512Z,1006.59
2018-03-18T10:29:22.525Z,1006.67
2018-03-18T10:30:22.536Z,1006.63
2018-03-18T10:31:22.540Z,1006.63
2018-03-18T10:32:22.548Z,1006.65
2018-03-18T10:33:22.562Z,1006.61
2018-03-18T10:34:22.567Z,1006.70
2018-03-18T10:35:22.582Z,1006.67
2018-03-18T10:36:22.588Z,1006.62
2018-03-18T10:37:22.597Z,1006.67
2018-03-18T10:38:22.610Z,1006.65
2018-03-18T10:39:22.612Z,1006.69
2018-03-18T10:40:22.634Z,1006.68
2018-03-18T10:41:22.630Z,1006.71
2018-03-18T10:42:22.640Z,1006.75
2018-03-18T10:43:22.656Z,1006.67
2018-03-18T10:44:22.659Z,1006.73
2018-03-18T10:45:22.667Z,1006.65
2018-03-18T10:46:22.680Z,1006.61
2018-03-18T10:47:22.689Z,1006.76
2018-03-18T10:48:22.696Z,1006.69
2018-03-18T10:49:22.716Z,1006.71
2018-03-18T10:50:22.717Z,1006.66
2018-03-18T10:51:22.724Z,1006.69
2018-03-18T10:52:22.733Z,1006.67
2018-03-18T10:53:22.742Z,1006.71
2018-03-18T10:54:22.756Z,1006.63
2018-03-18T10:55:22.759Z,1006.74
2018-03-18T10:56:22.771Z,1006.75
2018-03-18T10:57:22.783Z,1006.84
2018-03-18T10:58:22.788Z,1006.68
2018-03-18T10:59:22.860Z,1006.67
2018-03-18T11:00:22.810Z,1006.71
2018-03-18T11:01:22.819Z,1006.74
2018-03-18T11:02:22.827Z,1006.61
2018-03-18T11:03:22.849Z,1006.62
2018-03-18T11:04:22.845Z,1006.66
2018-03-18T11:05:22.858Z,1006.69
2018-03-18T11:06:22.865Z,1006.64
2018-03-18T11:07:22.875Z,1006.59
2018-03-18T11:08:22.880Z,1006.59
2018-03-18T11:09:22.892Z,1006.63
2018-03-18T11:10:22.903Z,1006.65
2018-03-18T11:11:22.910Z,1006.57
2018-03-18T11:12:22.922Z,1006.52
2018-03-18T11:13:22.929Z,1006.66
2018-03-18T11:14:22.962Z,1006.43
2018-03-18T11:15:22.951Z,1006.64
2018-03-18T11:16:22.958Z,1006.60
2018-03-18T11:17:22.968Z,1006.62
2018-03-18T11:18:22.975Z,1006.70
2018-03-18T11:19:22.994Z,1006.69
2018-03-18T11:20:22.996Z,1006.60
2018-03-18T11:21:23.003Z,1006.60
2018-03-18T11:22:23.018Z,1006.62
2018-03-18T11:23:23.027Z,1006.69
2018-03-18T11:24:23.031Z,1006.59
2018-03-18T11:25:23.043Z,1006.64
2018-03-18T11:26:23.063Z,1006.57
2018-03-18T11:27:23.072Z,1006.55
2018-03-18T11:28:23.069Z,1006.58
2018-03-18T11:29:23.078Z,1006.60
2018-03-18T11:30:23.106Z,1006.55
2018-03-18T11:31:23.106Z,1006.60
2018-03-18T11:32:23.107Z,1006.60
2018-03-18T11:33:23.124Z,1006.58
2018-03-18T11:34:23.137Z,1006.58
2018-03-18T11:35:23.177Z,1006.55
2018-03-18T11:36:23.149Z,1006.51
2018-03-18T11:37:23.156Z,1006.56
2018-03-18T11:38:23.166Z,1006.55
2018-03-18T11:39:23.175Z,1006.58
2018-03-18T11:40:23.182Z,1006.56
2018-03-18T11:41:23.209Z,1006.50
2018-03-18T11:42:23.203Z,1006.54
2018-03-18T11:43:23.210Z,1006.48
2018-03-18T11:44:23.218Z,1006.49
2018-03-18T11:45:23.231Z,1006.44
2018-03-18T11:46:23.239Z,1006.53
2018-03-18T11:47:23.248Z,1006.58
2018-03-18T11:48:23.266Z,1006.51
2018-03-18T11:49:23.270Z,1006.47
2018-03-18T11:50:23.276Z,1006.46
2018-03-18T11:51:23.284Z,1006.55
2018-03-18T11:52:23.296Z,1006.53
2018-03-18T11:53:23.309Z,1006.55
2018-03-18T11:54:23.409Z,1006.50
2018-03-18T11:55:23.523Z,1006.47
2018-03-18T11:56:23.332Z,1006.54
2018-03-18T11:57:23.342Z,1006.66
2018-03-18T11:58:23.358Z,1006.55
2018-03-18T11:59:23.362Z,1006.56
2018-03-18T12:00:23.374Z,1006.60
2018-03-18T12:01:23.379Z,1006.58
2018-03-18T12:02:23.389Z,1006.59
2018-03-18T12:03:23.399Z,1006.55
2018-03-18T12:04:23.412Z,1006.50
2018-03-18T12:05:23.417Z,1006.50
2018-03-18T12:06:23.430Z,1006.50